Kittery Point, ME

2:36 PM EDT on May 25, 2017 (GMT -0400)
KPV | | Change Station
Active Advisory: Coastal Flood Advisory Active Notice: Coastal Flood Advisory

Elev 40 ft 43.08 °N, 70.71 °W | Updated 3 seconds ago

Overcast
Overcast
51.1 °F
Feels Like 51.1 °F
N
4.9
Wind Variable Wind from ENE
Gusts 7.4 mph

Today
High -- | Low -- °F
--% Chance of Precip.
Yesterday
High -- | Low -- °F
Precip. -- in
Pressure 29.82 in
Visibility 4.0 miles
Clouds Scattered Clouds 1300 ft
Overcast 2500 ft
Dew Point 51 °F
Humidity 99%
Rainfall 0.00 in
Snow Depth Not available.
5:10 AM 8:09 PM
Waning Crescent, 0% visible
SPECI KPSM 251829Z 06016G23KT 4SM -RA BR SCT013 OVC025 12/09 A2982 RMK AO2A RAB29
Pressure 29.82 in
Visibility 4.0 miles
Clouds Scattered Clouds 1300 ft
Overcast 2500 ft
Dew Point 51 °F
Humidity 99%
Rainfall 0.00 in
Snow Depth Not available.
5:10 AM 8:09 PM
Waning Crescent, 0% visible
SPECI KPSM 251829Z 06016G23KT 4SM -RA BR SCT013 OVC025 12/09 A2982 RMK AO2A RAB29

Get Your Daily Forecast Email!

Thanks for signing up!

Be on the lookout for a verification email in your inbox.

You'll start receiving severe weather alerts in your inbox..

×

10-Day Weather Forecast

Almanac

Astronomy

May. 25, 2017 Rise Set
Actual Time
Civil Twilight
Nautical Twilight
Astronomical Twilight
Moon
Length of Visible Light
Length of Day
Tomorrow will be .
, % of the Moon is Illuminated

Today's Extremes

State Highs State Lows

Community

WunderPhotos

Category 6

Welcome to Category 6. This is the collective home for Weather Underground's featured writeups by Dr. Jeff Masters (right), Bob Henson (left), Chris Burt, and other regular contributors.

Nearby

Air Quality

  Air Quality AQ Index Pollutant
Not available.

Snow Depth

Station Depth Elevation

Earthquake Activity

City Distance Mag. Time & Date
Minimum magnitude displayed is 2.5.

Coastal Water Temperatures

Place Temperature

Stations

Nearby Weather Stations

Station Location Temp. Windchill Dew Point Humidity Wind Precip. Elev Updated Type
                   

Watches & Warnings

Coastal Flood Advisory
Issued: 11:16 AM EDT May. 25, 2017 – National Weather Service

... Coastal flood advisory remains in effect from 10 PM this
evening to 1 am EDT Friday...

* location... coastal Maine and New Hampshire.

* Timing... between 11 PM Thursday night and 1 am Friday morning.

* Impacts... splash-over and minor coastal flooding.

Precautionary/preparedness actions...

A coastal flood advisory indicates that onshore winds and tides
will combine to generate flooding of low areas along the shore.